Tulalip, Washington
Current Conditions -  °F | °C
As of 8:55 PM on Friday 21 Nov 2014 (Local Time) from KAWO Reporting Station
Overcast Overcast  
Wind Chill: 44°   Ceiling: 900
Heat Index: 46°   Visibility: 6mi
Dew Point: 43°   Wind: 5mph
Humidity: 87%   Direction: 250°WSW
Pressure: 29.4"   Gusts: NA
Location:  48.0955°N, 122.235°W
Report Text: KAWO 220455Z AUTO 25004KT 6SM BKN009 OVC015 08/06 A2940 RMK AO1 P0001
Loading
Personal Weather Stations






























Interactive Weather Map New forecast layout! Learn more

10-Day Weather Forecast

Advertisements
Track Severe Weather on mobile